createdAt,value
2023-03-18T00:01:13.201Z,9.23
2023-03-18T00:06:18.589Z,10.50
2023-03-18T00:11:23.013Z,8.37
2023-03-18T00:16:25.575Z,13.63
2023-03-18T00:21:28.125Z,9.10
2023-03-18T00:26:32.031Z,5.90
2023-03-18T00:31:34.166Z,7.43
2023-03-18T00:36:36.664Z,7.47
2023-03-18T00:41:40.776Z,9.33
2023-03-18T00:46:42.976Z,9.47
2023-03-18T00:51:45.501Z,14.20
2023-03-18T00:56:49.869Z,9.97
2023-03-18T01:01:52.606Z,7.93
2023-03-18T01:06:55.045Z,8.80
2023-03-18T01:11:58.546Z,6.60
2023-03-18T01:17:01.101Z,10.27
2023-03-18T01:22:04.170Z,11.10
2023-03-18T01:27:08.185Z,6.13
2023-03-18T01:32:10.370Z,12.00
2023-03-18T01:37:13.988Z,11.83
2023-03-18T01:42:18.566Z,9.60
2023-03-18T01:47:22.795Z,11.67
2023-03-18T01:52:30.089Z,13.07
2023-03-18T01:57:35.002Z,11.53
2023-03-18T02:02:37.600Z,13.87
2023-03-18T02:07:43.018Z,12.63
2023-03-18T02:12:51.180Z,10.53
2023-03-18T02:17:56.544Z,15.13
2023-03-18T02:23:08.094Z,11.33
2023-03-18T02:28:14.600Z,12.23
2023-03-18T02:33:18.580Z,10.83
2023-03-18T02:38:20.788Z,10.40
2023-03-18T02:43:27.471Z,8.40
2023-03-18T02:48:36.146Z,9.93
2023-03-18T02:53:38.988Z,11.30
2023-03-18T02:58:44.123Z,7.73
2023-03-18T03:03:47.127Z,11.67
2023-03-18T03:08:49.682Z,7.03
2023-03-18T03:13:53.829Z,10.70
2023-03-18T03:18:56.192Z,9.53
2023-03-18T03:23:58.532Z,9.37
2023-03-18T03:29:02.839Z,7.47
2023-03-18T03:34:04.965Z,5.77
2023-03-18T03:39:07.516Z,5.73
2023-03-18T03:44:11.466Z,7.83
2023-03-18T03:49:13.655Z,10.40
2023-03-18T03:54:16.977Z,9.47
2023-03-18T03:59:20.673Z,10.03
2023-03-18T04:04:22.812Z,12.07
2023-03-18T04:09:25.686Z,10.23
2023-03-18T04:14:29.294Z,10.77
2023-03-18T04:19:31.648Z,11.90
2023-03-18T04:24:33.970Z,9.47
2023-03-18T04:29:37.632Z,10.27
2023-03-18T04:34:39.922Z,10.73
2023-03-18T04:39:42.972Z,10.57
2023-03-18T04:44:46.766Z,11.17
2023-03-18T04:49:49.441Z,11.90
2023-03-18T04:54:52.050Z,14.03
2023-03-18T04:59:57.145Z,13.27
2023-03-18T05:05:01.591Z,11.07
2023-03-18T05:10:04.245Z,12.63
2023-03-18T05:15:11.555Z,13.13
2023-03-18T05:20:14.990Z,11.77
2023-03-18T05:25:17.947Z,8.87
2023-03-18T05:30:23.172Z,12.00
2023-03-18T05:35:26.350Z,12.37
2023-03-18T05:40:29.090Z,14.77
2023-03-18T05:45:36.773Z,9.23
2023-03-18T05:50:45.710Z,11.10
2023-03-18T05:55:49.688Z,13.60
2023-03-18T06:01:02.632Z,10.43
2023-03-18T06:06:09.907Z,11.47
2023-03-18T06:11:12.534Z,9.13
2023-03-18T06:16:29.962Z,10.23
2023-03-18T06:21:34.297Z,12.33
2023-03-18T06:26:44.121Z,9.53
2023-03-18T06:31:50.496Z,10.27
2023-03-18T06:36:53.394Z,9.60
2023-03-18T06:41:58.031Z,10.87
2023-03-18T06:47:09.299Z,9.93
2023-03-18T06:52:16.052Z,11.47
2023-03-18T06:57:24.140Z,9.17
2023-03-18T07:02:40.313Z,10.33
2023-03-18T07:08:11.048Z,13.27
2023-03-18T07:13:19.499Z,17.37
2023-03-18T07:18:40.752Z,10.40
2023-03-18T07:23:59.681Z,14.37
2023-03-18T07:29:01.968Z,19.07
2023-03-18T07:34:30.220Z,17.40
2023-03-18T07:39:56.077Z,12.93
2023-03-18T07:45:14.115Z,8.73
2023-03-18T07:50:25.388Z,7.50
2023-03-18T07:55:32.707Z,10.67
2023-03-18T08:00:36.008Z,4.80
2023-03-18T08:05:59.311Z,4.37
2023-03-18T08:11:04.958Z,15.07
2023-03-18T08:16:12.634Z,23.47
2023-03-18T08:21:23.718Z,8.60
2023-03-18T08:26:40.077Z,4.67
2023-03-18T08:31:55.955Z,7.00
2023-03-18T08:37:00.466Z,10.03
2023-03-18T08:42:11.206Z,5.73
2023-03-18T08:47:18.475Z,10.27
2023-03-18T08:52:25.810Z,6.60
2023-03-18T08:57:33.084Z,3.45
2023-03-18T09:02:35.964Z,4.30
2023-03-18T09:07:40.393Z,4.28
2023-03-18T09:12:50.283Z,3.15
2023-03-18T09:18:09.932Z,3.33
2023-03-18T09:23:18.466Z,5.63
2023-03-18T09:28:27.207Z,3.35
2023-03-18T09:33:35.297Z,2.25
2023-03-18T09:38:46.943Z,1.75
2023-03-18T09:44:00.438Z,2.50
2023-03-18T09:49:34.692Z,6.45
2023-03-18T09:54:45.361Z,3.83
2023-03-18T09:59:52.806Z,4.30
2023-03-18T10:05:08.731Z,3.78
2023-03-18T10:10:24.596Z,5.72
2023-03-18T10:16:13.836Z,5.32
2023-03-18T10:21:26.383Z,12.88
2023-03-18T10:26:34.197Z,2.65
2023-03-18T10:31:59.082Z,5.75
2023-03-18T10:37:07.999Z,5.15
2023-03-18T10:42:23.835Z,5.07
2023-03-18T10:47:29.854Z,3.42
2023-03-18T10:52:37.245Z,3.78
2023-03-18T10:57:40.866Z,4.90
2023-03-18T11:02:43.937Z,5.80
2023-03-18T11:07:57.843Z,5.20
2023-03-18T11:13:02.858Z,8.60
2023-03-18T11:18:06.214Z,5.10
2023-03-18T11:23:17.789Z,3.85
2023-03-18T11:28:29.495Z,4.38
2023-03-18T11:33:35.353Z,11.43
2023-03-18T11:38:38.977Z,7.32
2023-03-18T11:43:56.495Z,8.50
2023-03-18T11:48:59.585Z,9.00
2023-03-18T11:54:25.026Z,8.63
2023-03-18T11:59:51.061Z,8.15
2023-03-18T12:05:18.355Z,9.55
2023-03-18T12:10:26.555Z,8.38
2023-03-18T12:15:40.220Z,9.75
2023-03-18T12:20:52.411Z,12.82
2023-03-18T12:26:08.681Z,9.48
2023-03-18T12:31:40.881Z,10.30
2023-03-18T12:36:59.104Z,12.38
2023-03-18T12:42:04.783Z,11.85
2023-03-18T12:47:12.402Z,12.68
2023-03-18T12:52:26.146Z,10.13
2023-03-18T12:57:38.011Z,11.18
2023-03-18T13:02:49.352Z,11.30
2023-03-18T13:08:03.401Z,11.18
2023-03-18T13:13:11.859Z,8.75
2023-03-18T13:18:21.248Z,11.70
2023-03-18T13:23:38.681Z,10.80
2023-03-18T13:28:52.675Z,10.35
2023-03-18T13:34:38.706Z,9.63
2023-03-18T13:39:54.576Z,8.75
2023-03-18T13:45:06.979Z,8.70
2023-03-18T13:50:35.854Z,12.02
2023-03-18T13:55:47.773Z,15.80
2023-03-18T14:01:28.694Z,10.65
2023-03-18T14:07:03.853Z,8.82
2023-03-18T14:12:24.259Z,12.07
2023-03-18T14:17:47.912Z,13.50
2023-03-18T14:22:53.141Z,14.82
2023-03-18T14:28:00.505Z,9.73
2023-03-18T14:33:04.789Z,11.98
2023-03-18T14:38:11.494Z,11.55
2023-03-18T14:43:21.550Z,8.43
2023-03-18T14:48:29.452Z,8.77
2023-03-18T14:53:35.509Z,15.00
2023-03-18T14:58:39.298Z,12.27
2023-03-18T15:03:44.963Z,13.48
2023-03-18T15:08:51.880Z,14.43
2023-03-18T15:14:00.250Z,13.95
2023-03-18T15:19:05.419Z,11.48
2023-03-18T15:24:09.640Z,10.25
2023-03-18T15:29:28.299Z,11.88
2023-03-18T15:34:31.937Z,13.50
2023-03-18T15:39:36.957Z,15.05
2023-03-18T15:44:43.243Z,14.77
2023-03-18T15:49:55.084Z,15.82
2023-03-18T15:54:59.124Z,16.23
2023-03-18T16:00:04.667Z,19.60
2023-03-18T16:05:09.371Z,16.83
2023-03-18T16:10:13.000Z,14.30
2023-03-18T16:15:22.313Z,15.68
2023-03-18T16:20:26.229Z,13.48
2023-03-18T16:25:29.213Z,15.10
2023-03-18T16:30:34.111Z,19.05
2023-03-18T16:35:38.618Z,18.42
2023-03-18T16:40:41.064Z,19.40
2023-03-18T16:45:45.336Z,23.63
2023-03-18T16:50:50.286Z,39.23
2023-03-18T16:55:56.091Z,19.50
2023-03-18T17:01:00.301Z,19.97
2023-03-18T17:06:03.021Z,17.03
2023-03-18T17:11:08.303Z,17.77
2023-03-18T17:16:17.731Z,14.03
2023-03-18T17:21:20.663Z,14.67
2023-03-18T17:26:25.284Z,16.93
2023-03-18T17:31:30.142Z,15.90
2023-03-18T17:36:33.442Z,14.73
2023-03-18T17:41:36.539Z,15.50
2023-03-18T17:46:42.736Z,17.50
2023-03-18T17:51:49.189Z,15.67
2023-03-18T17:56:52.476Z,14.17
2023-03-18T18:01:58.355Z,20.50
2023-03-18T18:07:00.897Z,18.10
2023-03-18T18:12:05.885Z,15.57
2023-03-18T18:17:16.342Z,13.10
2023-03-18T18:22:23.285Z,14.07
2023-03-18T18:27:26.606Z,15.50
2023-03-18T18:32:30.652Z,16.47
2023-03-18T18:37:34.071Z,17.37
2023-03-18T18:42:38.914Z,14.33
2023-03-18T18:47:45.023Z,16.57
2023-03-18T18:52:48.675Z,11.77
2023-03-18T18:57:52.271Z,14.87
2023-03-18T19:02:59.997Z,14.90
2023-03-18T19:08:04.312Z,12.93
2023-03-18T19:13:14.452Z,14.93
2023-03-18T19:18:25.756Z,13.67
2023-03-18T19:23:31.936Z,14.80
2023-03-18T19:28:58.938Z,18.10
2023-03-18T19:34:08.765Z,16.37
2023-03-18T19:39:17.461Z,14.47
2023-03-18T19:44:23.707Z,15.50
2023-03-18T19:49:37.055Z,17.33
2023-03-18T19:54:41.495Z,18.57
2023-03-18T19:59:47.561Z,20.90
2023-03-18T20:04:53.237Z,22.40
2023-03-18T20:09:57.482Z,27.57
2023-03-18T20:15:01.663Z,25.80
2023-03-18T20:20:08.129Z,21.70
2023-03-18T20:25:20.907Z,24.47
2023-03-18T20:30:27.308Z,27.57
2023-03-18T20:35:35.054Z,24.67
2023-03-18T20:40:41.860Z,21.67
2023-03-18T20:45:45.699Z,22.33
2023-03-18T20:50:52.635Z,17.40
2023-03-18T20:55:58.010Z,17.53
2023-03-18T21:01:05.225Z,16.87
2023-03-18T21:06:15.672Z,16.93
2023-03-18T21:11:25.654Z,16.83
2023-03-18T21:16:28.447Z,16.50
2023-03-18T21:21:38.481Z,15.40
2023-03-18T21:26:44.626Z,16.83
2023-03-18T21:31:52.804Z,16.17
2023-03-18T21:36:57.761Z,16.63
2023-03-18T21:42:00.575Z,13.77
2023-03-18T21:47:05.048Z,19.67
2023-03-18T21:52:15.296Z,16.00
2023-03-18T21:57:19.495Z,14.80
2023-03-18T22:02:30.537Z,14.37
2023-03-18T22:07:34.290Z,17.40
2023-03-18T22:12:37.560Z,13.80
2023-03-18T22:17:41.272Z,16.37
2023-03-18T22:22:45.364Z,14.17
2023-03-18T22:27:47.256Z,17.33
2023-03-18T22:32:50.712Z,12.90
2023-03-18T22:37:55.347Z,10.43
2023-03-18T22:42:59.689Z,15.47
2023-03-18T22:48:03.816Z,14.67
2023-03-18T22:53:09.376Z,14.57
2023-03-18T22:58:19.279Z,12.07
2023-03-18T23:03:23.561Z,13.77
2023-03-18T23:08:28.436Z,16.83
2023-03-18T23:13:34.637Z,15.87
2023-03-18T23:18:37.739Z,15.23
2023-03-18T23:23:41.381Z,13.67
2023-03-18T23:28:45.133Z,12.40
2023-03-18T23:33:47.504Z,8.03
2023-03-18T23:38:51.800Z,8.53
2023-03-18T23:43:53.981Z,10.70
2023-03-18T23:48:56.058Z,6.30
2023-03-18T23:54:01.125Z,7.57
2023-03-18T23:59:03.630Z,7.03
